createdAt,value
2018-11-12T08:42:51.148Z,7.75
2018-11-12T08:45:21.471Z,8.35
2018-11-12T08:47:52.823Z,7.97
2018-11-12T08:50:24.168Z,9.08
2018-11-12T08:52:54.811Z,9.48
2018-11-12T08:55:26.290Z,8.55
2018-11-12T08:57:58.918Z,7.95
2018-11-12T09:00:29.456Z,8.55
2018-11-12T09:02:59.883Z,8.05
2018-11-12T09:05:30.926Z,8.75
2018-11-12T09:08:03.806Z,8.50
2018-11-12T09:10:35.373Z,8.80
2018-11-12T09:13:05.792Z,7.78
2018-11-12T09:15:35.735Z,8.58
2018-11-12T09:18:06.022Z,7.67
2018-11-12T09:20:36.244Z,7.10
2018-11-12T09:23:06.672Z,8.28
2018-11-12T09:25:36.685Z,8.93
2018-11-12T09:28:06.918Z,7.87
2018-11-12T09:30:37.002Z,6.85
2018-11-12T09:33:07.043Z,6.08
2018-11-12T09:35:38.301Z,6.85
2018-11-12T09:38:08.218Z,7.10
2018-11-12T09:40:39.349Z,6.67
2018-11-12T09:43:09.716Z,7.85
2018-11-12T09:45:39.992Z,10.15
2018-11-12T09:48:11.145Z,9.60
2018-11-12T09:50:44.550Z,7.12
2018-11-12T09:53:15.064Z,5.42
2018-11-12T09:55:45.250Z,6.75
2018-11-12T09:58:15.195Z,7.00
2018-11-12T10:00:45.640Z,7.87
2018-11-12T10:03:16.878Z,6.78
2018-11-12T10:05:47.299Z,7.22
2018-11-12T10:08:17.563Z,5.60
2018-11-12T10:10:50.425Z,5.22
2018-11-12T10:13:22.212Z,5.72
2018-11-12T10:15:53.187Z,5.35
2018-11-12T10:18:21.269Z,5.65
2018-11-12T10:20:51.285Z,5.03
2018-11-12T10:23:21.814Z,5.10
2018-11-12T10:25:52.039Z,4.95
2018-11-12T10:28:23.074Z,5.58
2018-11-12T10:30:55.268Z,5.50
2018-11-12T10:33:25.055Z,5.37
2018-11-12T10:35:55.689Z,5.87
2018-11-12T10:38:25.805Z,5.62
2018-11-12T10:40:56.150Z,5.67
2018-11-12T10:43:25.308Z,6.60
2018-11-12T10:45:54.483Z,5.42
2018-11-12T10:48:23.742Z,4.87
2018-11-12T10:50:56.378Z,5.97
2018-11-12T10:53:22.365Z,4.55
2018-11-12T10:55:51.433Z,5.92
2018-11-12T10:58:20.561Z,5.42
2018-11-12T11:00:58.384Z,6.03
2018-11-12T11:03:31.705Z,5.78
2018-11-12T11:06:01.119Z,5.00
2018-11-12T11:08:30.252Z,4.87
2018-11-12T11:10:59.307Z,4.85
2018-11-12T11:13:28.369Z,4.45
2018-11-12T11:15:57.412Z,5.08
2018-11-12T11:18:26.469Z,5.17
2018-11-12T11:20:55.509Z,5.53
2018-11-12T11:23:24.588Z,4.92
2018-11-12T11:25:53.636Z,4.97
2018-11-12T11:28:23.543Z,6.62
2018-11-12T11:30:52.649Z,5.03
2018-11-12T11:33:21.838Z,5.75
2018-11-12T11:35:51.119Z,6.58
2018-11-12T11:38:20.826Z,4.83
2018-11-12T11:40:49.996Z,4.28
2018-11-12T11:43:19.032Z,5.30
2018-11-12T11:45:48.080Z,5.03
2018-11-12T11:48:17.290Z,5.40
2018-11-12T11:50:46.561Z,5.42
2018-11-12T11:53:15.525Z,5.80
2018-11-12T11:55:44.551Z,5.92
2018-11-12T11:58:13.795Z,6.33
2018-11-12T12:00:42.872Z,6.55
2018-11-12T12:03:12.025Z,6.20
2018-11-12T12:05:41.358Z,5.37
2018-11-12T12:08:11.679Z,5.80
2018-11-12T12:10:41.187Z,6.28
2018-11-12T12:13:10.434Z,5.50
2018-11-12T12:15:39.751Z,5.33
2018-11-12T12:18:09.080Z,5.75
2018-11-12T12:20:38.341Z,6.20
2018-11-12T12:23:07.400Z,4.95
2018-11-12T12:25:36.557Z,5.35
2018-11-12T12:28:05.898Z,4.90
2018-11-12T12:30:34.877Z,5.03
2018-11-12T12:33:04.016Z,6.37
2018-11-12T12:35:33.115Z,6.40
2018-11-12T12:38:02.139Z,6.17
2018-11-12T12:40:31.629Z,5.95
2018-11-12T12:43:00.750Z,7.22
2018-11-12T12:45:32.791Z,6.15
2018-11-12T12:48:04.234Z,5.90
2018-11-12T12:50:33.336Z,7.15
2018-11-12T12:53:02.390Z,6.03
2018-11-12T12:55:31.476Z,4.70
2018-11-12T12:58:00.554Z,6.12
2018-11-12T13:00:29.598Z,5.35
2018-11-12T13:02:58.620Z,5.87
2018-11-12T13:05:27.735Z,5.50
2018-11-12T13:08:00.455Z,6.57
2018-11-12T13:10:30.720Z,6.65
2018-11-12T13:13:00.955Z,6.37
2018-11-12T13:15:30.007Z,6.45
2018-11-12T13:17:59.151Z,6.70
2018-11-12T13:20:29.625Z,6.28
2018-11-12T13:22:59.720Z,6.55
2018-11-12T13:25:28.696Z,6.95
2018-11-12T13:27:59.843Z,7.87
2018-11-12T13:30:30.291Z,8.48
2018-11-12T13:32:59.537Z,8.20
2018-11-12T13:35:28.581Z,8.18
2018-11-12T13:37:57.686Z,7.75
2018-11-12T13:40:29.829Z,9.08
2018-11-12T13:43:00.853Z,8.65
2018-11-12T13:45:30.182Z,9.53
2018-11-12T13:48:00.200Z,9.45
2018-11-12T13:50:30.427Z,10.95
2018-11-12T13:53:00.630Z,11.25
2018-11-12T13:55:29.660Z,10.90
2018-11-12T13:57:58.872Z,11.22
2018-11-12T14:00:29.272Z,11.53
2018-11-12T14:03:02.824Z,12.73
2018-11-12T14:05:31.874Z,12.73
2018-11-12T14:08:00.960Z,14.30
2018-11-12T14:10:32.471Z,14.40
2018-11-12T14:13:04.360Z,15.78
2018-11-12T14:15:35.221Z,14.60
2018-11-12T14:18:05.560Z,16.35
2018-11-12T14:20:37.858Z,15.25
2018-11-12T14:23:07.302Z,18.32
2018-11-12T14:25:39.342Z,17.65
2018-11-12T14:28:08.622Z,18.17
2018-11-12T14:30:37.826Z,19.45
2018-11-12T14:33:06.888Z,19.20
2018-11-12T14:35:36.068Z,20.52
2018-11-12T14:38:05.267Z,19.95
2018-11-12T14:40:34.281Z,20.00
2018-11-12T14:43:03.836Z,21.93
2018-11-12T14:45:32.873Z,22.30
2018-11-12T14:48:09.513Z,26.23
2018-11-12T14:50:38.536Z,23.22
2018-11-12T14:53:07.559Z,24.67
2018-11-12T14:55:36.975Z,22.22
2018-11-12T14:58:05.999Z,20.32
2018-11-12T15:00:34.999Z,22.50
2018-11-12T15:03:04.057Z,20.60
2018-11-12T15:05:33.100Z,20.85
2018-11-12T15:08:02.170Z,19.17
2018-11-12T15:10:31.247Z,19.37
2018-11-12T15:13:00.326Z,19.20
2018-11-12T15:15:29.853Z,19.40
2018-11-12T15:17:59.037Z,20.20
2018-11-12T15:20:28.080Z,20.00
2018-11-12T15:22:58.100Z,19.85
2018-11-12T15:25:27.236Z,20.88
2018-11-12T15:27:56.243Z,22.25
2018-11-12T15:30:26.120Z,18.27
2018-11-12T15:32:56.280Z,18.27
2018-11-12T15:35:25.927Z,17.55
2018-11-12T15:37:54.964Z,16.42
2018-11-12T15:40:24.190Z,17.37
2018-11-12T15:42:56.122Z,15.58
2018-11-12T15:45:26.195Z,15.32
2018-11-12T15:47:56.670Z,15.00
2018-11-12T15:50:28.810Z,14.50
2018-11-12T15:52:57.861Z,15.35
2018-11-12T15:55:27.746Z,14.55
2018-11-12T15:57:57.008Z,14.53
2018-11-12T16:00:25.971Z,14.73
2018-11-12T16:02:54.967Z,14.80
2018-11-12T16:05:24.073Z,15.13
2018-11-12T16:07:53.168Z,13.10
2018-11-12T16:10:22.539Z,13.48
2018-11-12T16:12:51.634Z,14.75
2018-11-12T16:15:21.516Z,14.10
2018-11-12T16:17:50.548Z,14.28
2018-11-12T16:20:36.952Z,13.80
2018-11-12T16:23:06.072Z,13.05
2018-11-12T16:25:35.082Z,13.50
2018-11-12T16:28:04.166Z,14.20
2018-11-12T16:30:33.211Z,14.93
2018-11-12T16:33:02.268Z,15.68
2018-11-12T16:35:31.332Z,15.53
2018-11-12T16:38:00.320Z,14.93
2018-11-12T16:40:29.577Z,15.15
2018-11-12T16:42:58.581Z,16.85
2018-11-12T16:45:28.067Z,16.27
2018-11-12T16:47:57.115Z,17.25
2018-11-12T16:50:26.181Z,18.40
2018-11-12T16:52:55.280Z,17.50
2018-11-12T16:55:24.571Z,18.20
2018-11-12T16:57:53.952Z,17.40
2018-11-12T17:00:24.008Z,17.42
2018-11-12T17:02:53.143Z,17.87
2018-11-12T17:05:23.680Z,18.45
2018-11-12T17:07:52.994Z,18.87
2018-11-12T17:10:23.399Z,17.87
2018-11-12T17:12:52.478Z,19.15
2018-11-12T17:15:21.641Z,17.32
2018-11-12T17:17:50.699Z,17.45
2018-11-12T17:20:20.953Z,15.53
2018-11-12T17:22:49.960Z,16.20
2018-11-12T17:25:19.664Z,22.27
2018-11-12T17:27:49.018Z,15.93
2018-11-12T17:30:19.594Z,16.12
2018-11-12T17:32:48.936Z,15.30
2018-11-12T17:35:19.190Z,16.70
2018-11-12T17:37:48.289Z,17.17
2018-11-12T17:40:19.894Z,17.25
2018-11-12T17:42:49.626Z,15.53
2018-11-12T17:45:20.078Z,16.60
2018-11-12T17:47:50.570Z,17.35
2018-11-12T17:50:19.539Z,16.80
2018-11-12T17:52:48.589Z,16.37
2018-11-12T17:55:17.636Z,16.55
2018-11-12T17:57:46.749Z,16.90
2018-11-12T18:00:19.271Z,16.97
2018-11-12T18:02:48.661Z,17.10
2018-11-12T18:05:17.674Z,17.55
2018-11-12T18:07:46.841Z,16.45
2018-11-12T18:10:16.368Z,17.02
2018-11-12T18:12:45.812Z,18.15
2018-11-12T18:15:27.125Z,17.60
2018-11-12T18:17:56.099Z,17.45
2018-11-12T18:20:26.546Z,17.87
2018-11-12T18:22:56.503Z,17.90
2018-11-12T18:25:25.545Z,18.65
2018-11-12T18:27:55.197Z,19.48
2018-11-12T18:30:26.007Z,18.98
2018-11-12T18:32:56.045Z,20.12
2018-11-12T18:35:25.163Z,21.45
2018-11-12T18:37:54.298Z,20.62
2018-11-12T18:40:25.066Z,21.57
2018-11-12T18:42:54.214Z,21.50
2018-11-12T18:45:24.700Z,20.80
2018-11-12T18:47:54.330Z,22.25
2018-11-12T18:50:25.695Z,21.57
2018-11-12T18:52:54.771Z,21.17
2018-11-12T18:55:23.790Z,22.10
2018-11-12T18:57:53.138Z,22.00
2018-11-12T19:00:23.411Z,22.32
2018-11-12T19:02:52.740Z,21.77
2018-11-12T19:05:24.217Z,22.75
2018-11-12T19:07:54.535Z,18.48
2018-11-12T19:10:25.881Z,17.95
2018-11-12T19:12:55.828Z,17.67
2018-11-12T19:15:26.289Z,18.50
2018-11-12T19:17:56.050Z,16.60
2018-11-12T19:20:25.050Z,16.57
2018-11-12T19:22:54.320Z,15.90
2018-11-12T19:25:23.362Z,17.50
2018-11-12T19:27:52.346Z,16.35
2018-11-12T19:30:22.721Z,16.07
2018-11-12T19:32:51.754Z,17.25
2018-11-12T19:35:22.076Z,18.73
2018-11-12T19:37:51.198Z,17.15
2018-11-12T19:40:22.328Z,16.90
2018-11-12T19:42:52.470Z,16.37
2018-11-12T19:45:21.507Z,17.05
2018-11-12T19:47:50.917Z,17.92
2018-11-12T19:50:28.905Z,16.87
2018-11-12T19:52:58.810Z,17.70
2018-11-12T19:55:27.817Z,16.73
2018-11-12T19:57:56.894Z,16.02
2018-11-12T20:00:28.035Z,17.55
2018-11-12T20:02:58.240Z,16.00
2018-11-12T20:05:27.282Z,16.82
2018-11-12T20:07:56.376Z,15.45
2018-11-12T20:10:25.643Z,15.00
2018-11-12T20:12:54.677Z,15.68
2018-11-12T20:15:24.698Z,15.75
2018-11-12T20:17:54.353Z,14.80
2018-11-12T20:20:29.100Z,13.10
2018-11-12T20:22:58.199Z,15.25
2018-11-12T20:25:27.248Z,13.78
2018-11-12T20:27:57.118Z,14.35
2018-11-12T20:30:28.296Z,14.38
2018-11-12T20:32:57.293Z,13.35
2018-11-12T20:35:26.268Z,13.68
2018-11-12T20:37:55.412Z,14.35
2018-11-12T20:40:24.404Z,13.98
2018-11-12T20:42:53.422Z,15.93
2018-11-12T20:45:23.175Z,14.60
2018-11-12T20:47:53.541Z,15.88
2018-11-12T20:50:23.013Z,14.63
2018-11-12T20:52:52.028Z,14.85
2018-11-12T20:55:21.030Z,15.20
2018-11-12T20:57:50.097Z,15.35
2018-11-12T21:00:22.420Z,15.00
2018-11-12T21:02:52.376Z,15.58
2018-11-12T21:05:22.221Z,15.65
2018-11-12T21:07:51.212Z,15.55
2018-11-12T21:10:20.699Z,15.60
2018-11-12T21:12:50.116Z,15.43
2018-11-12T21:15:20.119Z,14.18
2018-11-12T21:17:49.203Z,14.78
2018-11-12T21:20:19.685Z,15.68
2018-11-12T21:22:48.803Z,15.00
2018-11-12T21:25:19.230Z,15.28
2018-11-12T21:27:48.259Z,16.25
2018-11-12T21:30:24.934Z,15.85
2018-11-12T21:32:53.952Z,15.75
2018-11-12T21:35:23.025Z,16.67
2018-11-12T21:37:52.570Z,15.03
2018-11-12T21:40:23.767Z,14.63
2018-11-12T21:42:52.916Z,15.13
2018-11-12T21:45:23.512Z,16.12
2018-11-12T21:47:52.546Z,16.23
2018-11-12T21:50:22.327Z,14.53
2018-11-12T21:52:51.770Z,15.48
2018-11-12T21:55:20.814Z,15.15
2018-11-12T21:57:49.774Z,15.28
2018-11-12T22:00:20.292Z,14.53
2018-11-12T22:02:50.739Z,15.83
2018-11-12T22:05:19.764Z,15.18
2018-11-12T22:07:49.000Z,15.80
2018-11-12T22:10:18.539Z,16.23
2018-11-12T22:12:48.733Z,15.60
2018-11-12T22:15:17.751Z,15.80
2018-11-12T22:17:46.735Z,15.58
2018-11-12T22:20:17.039Z,15.78
2018-11-12T22:22:46.000Z,16.30
2018-11-12T22:25:16.355Z,15.58
2018-11-12T22:27:45.868Z,14.43
2018-11-12T22:30:17.740Z,14.10
2018-11-12T22:32:47.911Z,13.83
2018-11-12T22:35:16.858Z,14.10
2018-11-12T22:37:46.330Z,14.18
2018-11-12T22:40:16.202Z,14.15
2018-11-12T22:42:46.179Z,13.48
2018-11-12T22:45:16.515Z,15.53
2018-11-12T22:47:47.311Z,14.03
2018-11-12T22:50:17.312Z,12.85
2018-11-12T22:52:46.568Z,12.45
2018-11-12T22:55:17.271Z,12.15
2018-11-12T22:57:46.254Z,12.58
2018-11-12T23:00:22.623Z,12.45
2018-11-12T23:02:51.870Z,11.50
2018-11-12T23:05:21.213Z,11.68
2018-11-12T23:07:50.772Z,11.60
2018-11-12T23:10:20.605Z,11.95
2018-11-12T23:12:49.948Z,12.28
2018-11-12T23:15:19.583Z,13.20
2018-11-12T23:17:48.632Z,11.93
2018-11-12T23:20:20.025Z,13.75
2018-11-12T23:22:49.559Z,13.30
2018-11-12T23:25:18.642Z,13.53
2018-11-12T23:27:48.318Z,13.83
2018-11-12T23:30:18.652Z,14.00
2018-11-12T23:32:47.899Z,14.33
2018-11-12T23:35:19.107Z,14.87
2018-11-12T23:37:49.275Z,14.90
2018-11-12T23:40:18.294Z,14.68
2018-11-12T23:42:47.728Z,14.50
2018-11-12T23:45:16.807Z,14.03
2018-11-12T23:47:45.830Z,13.98
2018-11-12T23:50:17.148Z,14.18
2018-11-12T23:52:46.935Z,14.38
2018-11-12T23:55:16.376Z,14.13
2018-11-12T23:57:46.896Z,14.68
